sensor_id;sensor_type;location;lat;lon;timestamp;P1;durP1;ratioP1;P2;durP2;ratioP2
64235;SDS011;50564;47.402;9.740;2022-11-11T00:05:12;1.60;;;0.98;;
64235;SDS011;50564;47.402;9.740;2022-11-11T00:10:31;2.42;;;1.42;;
64235;SDS011;50564;47.402;9.740;2022-11-11T00:15:50;3.00;;;1.30;;
64235;SDS011;50564;47.402;9.740;2022-11-11T00:21:12;1.38;;;1.13;;
64235;SDS011;50564;47.402;9.740;2022-11-11T00:26:50;3.78;;;1.60;;
64235;SDS011;50564;47.402;9.740;2022-11-11T00:32:09;4.18;;;2.20;;
64235;SDS011;50564;47.402;9.740;2022-11-11T00:37:41;6.13;;;4.15;;
64235;SDS011;50564;47.402;9.740;2022-11-11T00:43:01;6.53;;;4.20;;
64235;SDS011;50564;47.402;9.740;2022-11-11T00:48:21;7.88;;;5.38;;
64235;SDS011;50564;47.402;9.740;2022-11-11T00:54:12;9.65;;;5.55;;
64235;SDS011;50564;47.402;9.740;2022-11-11T00:59:31;11.65;;;6.45;;
64235;SDS011;50564;47.402;9.740;2022-11-11T01:04:50;14.48;;;5.50;;
64235;SDS011;50564;47.402;9.740;2022-11-11T01:10:09;7.38;;;4.55;;
64235;SDS011;50564;47.402;9.740;2022-11-11T01:15:31;7.65;;;3.83;;
64235;SDS011;50564;47.402;9.740;2022-11-11T01:21:02;5.95;;;2.72;;
64235;SDS011;50564;47.402;9.740;2022-11-11T01:26:32;5.35;;;2.80;;
64235;SDS011;50564;47.402;9.740;2022-11-11T01:31:51;4.65;;;2.47;;
64235;SDS011;50564;47.402;9.740;2022-11-11T01:37:10;5.10;;;1.30;;
64235;SDS011;50564;47.402;9.740;2022-11-11T01:42:29;2.63;;;1.58;;
64235;SDS011;50564;47.402;9.740;2022-11-11T01:47:48;3.33;;;2.00;;
64235;SDS011;50564;47.402;9.740;2022-11-11T01:53:26;3.17;;;1.67;;
64235;SDS011;50564;47.402;9.740;2022-11-11T01:58:45;2.25;;;1.45;;
64235;SDS011;50564;47.402;9.740;2022-11-11T02:04:05;3.55;;;1.23;;
64235;SDS011;50564;47.402;9.740;2022-11-11T02:09:44;2.17;;;0.88;;
64235;SDS011;50564;47.402;9.740;2022-11-11T02:15:05;3.15;;;1.38;;
64235;SDS011;50564;47.402;9.740;2022-11-11T02:20:25;4.50;;;2.00;;
64235;SDS011;50564;47.402;9.740;2022-11-11T02:25:46;4.53;;;2.30;;
64235;SDS011;50564;47.402;9.740;2022-11-11T02:31:06;5.13;;;2.90;;
64235;SDS011;50564;47.402;9.740;2022-11-11T02:36:27;3.88;;;1.85;;
64235;SDS011;50564;47.402;9.740;2022-11-11T02:41:46;2.95;;;1.60;;
64235;SDS011;50564;47.402;9.740;2022-11-11T02:47:15;3.03;;;1.48;;
64235;SDS011;50564;47.402;9.740;2022-11-11T02:52:34;2.25;;;1.17;;
64235;SDS011;50564;47.402;9.740;2022-11-11T02:57:53;1.88;;;1.08;;
64235;SDS011;50564;47.402;9.740;2022-11-11T03:03:12;2.95;;;1.17;;
64235;SDS011;50564;47.402;9.740;2022-11-11T03:08:31;2.17;;;0.90;;
64235;SDS011;50564;47.402;9.740;2022-11-11T03:13:50;1.92;;;1.05;;
64235;SDS011;50564;47.402;9.740;2022-11-11T03:19:09;2.72;;;1.10;;
64235;SDS011;50564;47.402;9.740;2022-11-11T03:24:29;3.85;;;1.20;;
64235;SDS011;50564;47.402;9.740;2022-11-11T03:30:07;3.00;;;1.10;;
64235;SDS011;50564;47.402;9.740;2022-11-11T03:35:26;1.42;;;0.98;;
64235;SDS011;50564;47.402;9.740;2022-11-11T03:40:46;1.75;;;1.10;;
64235;SDS011;50564;47.402;9.740;2022-11-11T03:46:05;2.72;;;1.00;;
64235;SDS011;50564;47.402;9.740;2022-11-11T03:51:25;1.58;;;0.82;;
64235;SDS011;50564;47.402;9.740;2022-11-11T03:56:44;1.73;;;0.77;;
64235;SDS011;50564;47.402;9.740;2022-11-11T04:02:03;2.17;;;1.00;;
64235;SDS011;50564;47.402;9.740;2022-11-11T04:07:41;2.10;;;1.20;;
64235;SDS011;50564;47.402;9.740;2022-11-11T04:13:19;1.98;;;1.30;;
64235;SDS011;50564;47.402;9.740;2022-11-11T04:18:57;1.30;;;1.00;;
64235;SDS011;50564;47.402;9.740;2022-11-11T04:24:35;3.65;;;1.30;;
64235;SDS011;50564;47.402;9.740;2022-11-11T04:30:12;2.05;;;1.02;;
64235;SDS011;50564;47.402;9.740;2022-11-11T04:35:32;1.33;;;1.13;;
64235;SDS011;50564;47.402;9.740;2022-11-11T04:40:51;3.10;;;1.55;;
64235;SDS011;50564;47.402;9.740;2022-11-11T04:46:22;5.90;;;2.10;;
64235;SDS011;50564;47.402;9.740;2022-11-11T04:51:41;4.82;;;3.08;;
64235;SDS011;50564;47.402;9.740;2022-11-11T04:57:19;3.80;;;2.33;;
64235;SDS011;50564;47.402;9.740;2022-11-11T05:02:38;3.45;;;1.55;;
64235;SDS011;50564;47.402;9.740;2022-11-11T05:08:16;7.10;;;2.00;;
64235;SDS011;50564;47.402;9.740;2022-11-11T05:13:55;17.52;;;7.43;;
64235;SDS011;50564;47.402;9.740;2022-11-11T05:19:34;15.70;;;8.15;;
64235;SDS011;50564;47.402;9.740;2022-11-11T05:25:12;24.57;;;12.77;;
64235;SDS011;50564;47.402;9.740;2022-11-11T05:30:43;17.30;;;8.00;;
64235;SDS011;50564;47.402;9.740;2022-11-11T05:36:02;16.42;;;7.72;;
64235;SDS011;50564;47.402;9.740;2022-11-11T05:41:22;10.77;;;5.82;;
64235;SDS011;50564;47.402;9.740;2022-11-11T05:46:40;9.80;;;4.75;;
64235;SDS011;50564;47.402;9.740;2022-11-11T05:52:00;8.68;;;4.72;;
64235;SDS011;50564;47.402;9.740;2022-11-11T05:57:20;8.05;;;4.53;;
64235;SDS011;50564;47.402;9.740;2022-11-11T06:02:39;12.65;;;6.78;;
64235;SDS011;50564;47.402;9.740;2022-11-11T06:07:58;19.67;;;11.02;;
64235;SDS011;50564;47.402;9.740;2022-11-11T06:13:17;25.73;;;12.90;;
64235;SDS011;50564;47.402;9.740;2022-11-11T06:18:37;29.60;;;14.80;;
64235;SDS011;50564;47.402;9.740;2022-11-11T06:23:56;32.88;;;15.48;;
64235;SDS011;50564;47.402;9.740;2022-11-11T06:29:15;19.48;;;10.40;;
64235;SDS011;50564;47.402;9.740;2022-11-11T06:34:34;19.70;;;12.30;;
64235;SDS011;50564;47.402;9.740;2022-11-11T06:39:53;19.10;;;12.48;;
64235;SDS011;50564;47.402;9.740;2022-11-11T06:45:12;5.25;;;3.15;;
64235;SDS011;50564;47.402;9.740;2022-11-11T06:50:32;2.78;;;2.22;;
64235;SDS011;50564;47.402;9.740;2022-11-11T06:55:51;3.58;;;1.90;;
64235;SDS011;50564;47.402;9.740;2022-11-11T07:01:10;6.18;;;2.28;;
64235;SDS011;50564;47.402;9.740;2022-11-11T07:06:30;5.80;;;3.03;;
64235;SDS011;50564;47.402;9.740;2022-11-11T07:11:49;11.75;;;5.45;;
64235;SDS011;50564;47.402;9.740;2022-11-11T07:17:08;26.55;;;13.60;;
64235;SDS011;50564;47.402;9.740;2022-11-11T07:22:27;11.93;;;7.55;;
64235;SDS011;50564;47.402;9.740;2022-11-11T07:27:47;13.07;;;7.25;;
64235;SDS011;50564;47.402;9.740;2022-11-11T07:33:06;11.63;;;8.35;;
64235;SDS011;50564;47.402;9.740;2022-11-11T07:38:25;10.80;;;6.38;;
64235;SDS011;50564;47.402;9.740;2022-11-11T07:43:44;9.05;;;4.95;;
64235;SDS011;50564;47.402;9.740;2022-11-11T07:49:03;8.23;;;4.82;;
64235;SDS011;50564;47.402;9.740;2022-11-11T07:54:22;9.35;;;5.63;;
64235;SDS011;50564;47.402;9.740;2022-11-11T07:59:41;7.13;;;3.45;;
64235;SDS011;50564;47.402;9.740;2022-11-11T08:05:01;9.60;;;5.60;;
64235;SDS011;50564;47.402;9.740;2022-11-11T08:10:20;25.90;;;16.35;;
64235;SDS011;50564;47.402;9.740;2022-11-11T08:15:55;18.65;;;11.35;;
64235;SDS011;50564;47.402;9.740;2022-11-11T08:21:14;17.38;;;9.20;;
64235;SDS011;50564;47.402;9.740;2022-11-11T08:26:33;16.63;;;9.23;;
64235;SDS011;50564;47.402;9.740;2022-11-11T08:31:55;15.05;;;9.35;;
64235;SDS011;50564;47.402;9.740;2022-11-11T08:37:17;14.00;;;8.65;;
64235;SDS011;50564;47.402;9.740;2022-11-11T08:42:36;11.55;;;7.78;;
64235;SDS011;50564;47.402;9.740;2022-11-11T08:47:55;16.15;;;10.27;;
64235;SDS011;50564;47.402;9.740;2022-11-11T08:53:14;18.52;;;10.70;;
64235;SDS011;50564;47.402;9.740;2022-11-11T08:58:39;17.25;;;9.55;;
64235;SDS011;50564;47.402;9.740;2022-11-11T09:03:58;20.55;;;10.60;;
64235;SDS011;50564;47.402;9.740;2022-11-11T09:09:17;16.95;;;10.50;;
64235;SDS011;50564;47.402;9.740;2022-11-11T09:14:36;19.42;;;10.93;;
64235;SDS011;50564;47.402;9.740;2022-11-11T09:19:55;18.88;;;11.38;;
64235;SDS011;50564;47.402;9.740;2022-11-11T09:25:14;23.20;;;12.73;;
64235;SDS011;50564;47.402;9.740;2022-11-11T09:30:34;20.52;;;12.07;;
64235;SDS011;50564;47.402;9.740;2022-11-11T09:35:53;21.90;;;12.35;;
64235;SDS011;50564;47.402;9.740;2022-11-11T09:52:37;17.77;;;12.15;;
64235;SDS011;50564;47.402;9.740;2022-11-11T09:59:01;13.88;;;10.52;;
64235;SDS011;50564;47.402;9.740;2022-11-11T10:09:51;13.70;;;10.18;;
64235;SDS011;50564;47.402;9.740;2022-11-11T10:15:16;16.45;;;11.68;;
64235;SDS011;50564;47.402;9.740;2022-11-11T10:20:37;15.40;;;11.07;;
64235;SDS011;50564;47.402;9.740;2022-11-11T10:26:05;16.50;;;10.65;;
64235;SDS011;50564;47.402;9.740;2022-11-11T10:31:29;16.52;;;10.85;;
64235;SDS011;50564;47.402;9.740;2022-11-11T10:36:52;13.30;;;8.93;;
64235;SDS011;50564;47.402;9.740;2022-11-11T10:42:16;11.02;;;8.45;;
64235;SDS011;50564;47.402;9.740;2022-11-11T10:47:43;13.95;;;8.77;;
64235;SDS011;50564;47.402;9.740;2022-11-11T10:58:58;13.02;;;9.00;;
64235;SDS011;50564;47.402;9.740;2022-11-11T11:09:54;11.18;;;8.30;;
64235;SDS011;50564;47.402;9.740;2022-11-11T11:15:18;11.30;;;8.00;;
64235;SDS011;50564;47.402;9.740;2022-11-11T11:20:53;10.13;;;7.28;;
64235;SDS011;50564;47.402;9.740;2022-11-11T11:26:16;10.27;;;7.13;;
64235;SDS011;50564;47.402;9.740;2022-11-11T11:31:36;10.00;;;6.82;;
64235;SDS011;50564;47.402;9.740;2022-11-11T11:37:00;10.18;;;6.50;;
64235;SDS011;50564;47.402;9.740;2022-11-11T11:42:35;9.55;;;7.05;;
64235;SDS011;50564;47.402;9.740;2022-11-11T11:59:16;9.65;;;6.93;;
64235;SDS011;50564;47.402;9.740;2022-11-11T12:44:09;12.18;;;7.43;;
64235;SDS011;50564;47.402;9.740;2022-11-11T12:49:41;10.93;;;7.10;;
64235;SDS011;50564;47.402;9.740;2022-11-11T13:12:02;11.60;;;8.50;;
64235;SDS011;50564;47.402;9.740;2022-11-11T13:17:25;14.57;;;9.50;;
64235;SDS011;50564;47.402;9.740;2022-11-11T13:22:45;12.70;;;9.27;;
64235;SDS011;50564;47.402;9.740;2022-11-11T13:28:20;13.10;;;9.15;;
64235;SDS011;50564;47.402;9.740;2022-11-11T13:33:47;13.45;;;9.38;;
64235;SDS011;50564;47.402;9.740;2022-11-11T13:39:17;13.35;;;10.13;;
64235;SDS011;50564;47.402;9.740;2022-11-11T13:44:52;14.10;;;9.85;;
64235;SDS011;50564;47.402;9.740;2022-11-11T13:55:51;17.42;;;12.30;;
64235;SDS011;50564;47.402;9.740;2022-11-11T14:01:21;15.35;;;10.93;;
64235;SDS011;50564;47.402;9.740;2022-11-11T14:06:48;14.75;;;10.43;;
64235;SDS011;50564;47.402;9.740;2022-11-11T14:17:42;14.67;;;10.60;;
64235;SDS011;50564;47.402;9.740;2022-11-11T14:40:02;19.90;;;14.25;;
64235;SDS011;50564;47.402;9.740;2022-11-11T14:50:44;19.35;;;13.77;;
64235;SDS011;50564;47.402;9.740;2022-11-11T14:56:11;20.52;;;13.50;;
64235;SDS011;50564;47.402;9.740;2022-11-11T15:01:33;20.65;;;13.60;;
64235;SDS011;50564;47.402;9.740;2022-11-11T15:12:20;25.40;;;15.48;;
64235;SDS011;50564;47.402;9.740;2022-11-11T15:39:52;15.65;;;11.13;;
64235;SDS011;50564;47.402;9.740;2022-11-11T15:45:19;22.70;;;16.05;;
64235;SDS011;50564;47.402;9.740;2022-11-11T15:50:42;23.05;;;15.93;;
64235;SDS011;50564;47.402;9.740;2022-11-11T15:56:02;27.30;;;17.95;;
64235;SDS011;50564;47.402;9.740;2022-11-11T16:01:25;29.05;;;20.15;;
64235;SDS011;50564;47.402;9.740;2022-11-11T16:06:46;30.55;;;22.10;;
64235;SDS011;50564;47.402;9.740;2022-11-11T16:12:08;34.30;;;22.92;;
64235;SDS011;50564;47.402;9.740;2022-11-11T16:17:29;42.63;;;28.55;;
64235;SDS011;50564;47.402;9.740;2022-11-11T16:22:52;34.97;;;21.38;;
64235;SDS011;50564;47.402;9.740;2022-11-11T16:28:13;38.85;;;22.92;;
64235;SDS011;50564;47.402;9.740;2022-11-11T16:33:33;27.35;;;18.35;;
64235;SDS011;50564;47.402;9.740;2022-11-11T16:38:52;31.50;;;23.33;;
64235;SDS011;50564;47.402;9.740;2022-11-11T16:45:17;28.05;;;20.35;;
64235;SDS011;50564;47.402;9.740;2022-11-11T17:01:17;25.10;;;19.25;;
64235;SDS011;50564;47.402;9.740;2022-11-11T17:06:47;21.42;;;14.02;;
64235;SDS011;50564;47.402;9.740;2022-11-11T17:12:12;22.60;;;14.35;;
64235;SDS011;50564;47.402;9.740;2022-11-11T17:17:32;24.63;;;15.20;;
64235;SDS011;50564;47.402;9.740;2022-11-11T17:22:52;39.85;;;29.35;;
64235;SDS011;50564;47.402;9.740;2022-11-11T17:28:13;21.88;;;16.10;;
64235;SDS011;50564;47.402;9.740;2022-11-11T17:33:32;23.90;;;16.15;;
64235;SDS011;50564;47.402;9.740;2022-11-11T17:38:51;22.63;;;16.08;;
64235;SDS011;50564;47.402;9.740;2022-11-11T17:44:11;17.85;;;10.90;;
64235;SDS011;50564;47.402;9.740;2022-11-11T17:49:31;19.67;;;13.25;;
64235;SDS011;50564;47.402;9.740;2022-11-11T17:54:50;44.55;;;34.83;;
64235;SDS011;50564;47.402;9.740;2022-11-11T18:00:10;28.92;;;21.88;;
64235;SDS011;50564;47.402;9.740;2022-11-11T18:05:32;28.77;;;21.88;;
64235;SDS011;50564;47.402;9.740;2022-11-11T18:10:52;33.55;;;25.63;;
64235;SDS011;50564;47.402;9.740;2022-11-11T18:16:18;27.95;;;20.10;;
64235;SDS011;50564;47.402;9.740;2022-11-11T18:21:39;31.53;;;23.40;;
64235;SDS011;50564;47.402;9.740;2022-11-11T18:27:02;39.08;;;28.20;;
64235;SDS011;50564;47.402;9.740;2022-11-11T18:32:21;33.58;;;24.73;;
64235;SDS011;50564;47.402;9.740;2022-11-11T18:37:41;25.70;;;21.23;;
64235;SDS011;50564;47.402;9.740;2022-11-11T18:43:00;22.05;;;17.27;;
64235;SDS011;50564;47.402;9.740;2022-11-11T18:48:21;16.27;;;12.15;;
64235;SDS011;50564;47.402;9.740;2022-11-11T18:53:41;13.82;;;9.88;;
64235;SDS011;50564;47.402;9.740;2022-11-11T18:59:01;17.83;;;10.68;;
64235;SDS011;50564;47.402;9.740;2022-11-11T19:04:21;15.55;;;11.55;;
64235;SDS011;50564;47.402;9.740;2022-11-11T19:09:40;18.95;;;13.00;;
64235;SDS011;50564;47.402;9.740;2022-11-11T19:14:59;20.10;;;13.50;;
64235;SDS011;50564;47.402;9.740;2022-11-11T19:20:19;17.20;;;10.48;;
64235;SDS011;50564;47.402;9.740;2022-11-11T19:25:44;19.95;;;13.15;;
64235;SDS011;50564;47.402;9.740;2022-11-11T19:31:05;27.13;;;17.10;;
64235;SDS011;50564;47.402;9.740;2022-11-11T19:36:26;28.30;;;17.75;;
64235;SDS011;50564;47.402;9.740;2022-11-11T19:41:47;19.10;;;13.77;;
64235;SDS011;50564;47.402;9.740;2022-11-11T19:47:06;17.67;;;13.23;;
64235;SDS011;50564;47.402;9.740;2022-11-11T19:52:26;15.27;;;10.45;;
64235;SDS011;50564;47.402;9.740;2022-11-11T19:57:45;16.50;;;10.63;;
64235;SDS011;50564;47.402;9.740;2022-11-11T20:03:05;15.05;;;9.55;;
64235;SDS011;50564;47.402;9.740;2022-11-11T20:08:24;17.92;;;12.18;;
64235;SDS011;50564;47.402;9.740;2022-11-11T20:13:43;18.70;;;12.65;;
64235;SDS011;50564;47.402;9.740;2022-11-11T20:19:03;18.25;;;11.68;;
64235;SDS011;50564;47.402;9.740;2022-11-11T20:24:22;17.42;;;10.90;;
64235;SDS011;50564;47.402;9.740;2022-11-11T20:29:42;14.48;;;10.15;;
64235;SDS011;50564;47.402;9.740;2022-11-11T20:35:01;14.68;;;9.15;;
64235;SDS011;50564;47.402;9.740;2022-11-11T20:40:21;10.60;;;7.18;;
64235;SDS011;50564;47.402;9.740;2022-11-11T20:45:40;13.15;;;7.80;;
64235;SDS011;50564;47.402;9.740;2022-11-11T20:51:01;12.45;;;8.18;;
64235;SDS011;50564;47.402;9.740;2022-11-11T20:56:21;9.50;;;5.97;;
64235;SDS011;50564;47.402;9.740;2022-11-11T21:01:41;11.00;;;5.38;;
64235;SDS011;50564;47.402;9.740;2022-11-11T21:07:00;8.32;;;5.20;;
64235;SDS011;50564;47.402;9.740;2022-11-11T21:12:19;6.68;;;4.13;;
64235;SDS011;50564;47.402;9.740;2022-11-11T21:17:39;8.40;;;4.38;;
64235;SDS011;50564;47.402;9.740;2022-11-11T21:22:59;10.75;;;6.28;;
64235;SDS011;50564;47.402;9.740;2022-11-11T21:28:19;11.15;;;6.25;;
64235;SDS011;50564;47.402;9.740;2022-11-11T21:33:38;11.38;;;6.10;;
64235;SDS011;50564;47.402;9.740;2022-11-11T21:38:58;11.35;;;7.05;;
64235;SDS011;50564;47.402;9.740;2022-11-11T21:44:21;13.07;;;7.55;;
64235;SDS011;50564;47.402;9.740;2022-11-11T21:49:40;14.55;;;10.50;;
64235;SDS011;50564;47.402;9.740;2022-11-11T21:54:59;19.95;;;13.07;;
64235;SDS011;50564;47.402;9.740;2022-11-11T22:00:19;18.50;;;12.20;;
64235;SDS011;50564;47.402;9.740;2022-11-11T22:05:38;19.13;;;11.60;;
64235;SDS011;50564;47.402;9.740;2022-11-11T22:11:01;10.65;;;7.68;;
64235;SDS011;50564;47.402;9.740;2022-11-11T22:16:23;7.50;;;4.43;;
64235;SDS011;50564;47.402;9.740;2022-11-11T22:21:44;10.10;;;5.05;;
64235;SDS011;50564;47.402;9.740;2022-11-11T22:27:06;12.40;;;7.80;;
64235;SDS011;50564;47.402;9.740;2022-11-11T22:32:25;13.13;;;6.25;;
64235;SDS011;50564;47.402;9.740;2022-11-11T22:37:44;9.95;;;5.82;;
64235;SDS011;50564;47.402;9.740;2022-11-11T22:43:03;9.00;;;5.32;;
64235;SDS011;50564;47.402;9.740;2022-11-11T22:48:23;9.43;;;4.70;;
64235;SDS011;50564;47.402;9.740;2022-11-11T22:53:42;8.27;;;4.72;;
64235;SDS011;50564;47.402;9.740;2022-11-11T22:59:02;10.15;;;4.82;;
64235;SDS011;50564;47.402;9.740;2022-11-11T23:04:21;11.00;;;5.55;;
64235;SDS011;50564;47.402;9.740;2022-11-11T23:09:40;7.95;;;4.25;;
64235;SDS011;50564;47.402;9.740;2022-11-11T23:15:00;10.02;;;5.55;;
64235;SDS011;50564;47.402;9.740;2022-11-11T23:20:19;8.45;;;5.05;;
64235;SDS011;50564;47.402;9.740;2022-11-11T23:25:38;8.52;;;5.00;;
64235;SDS011;50564;47.402;9.740;2022-11-11T23:31:08;10.32;;;4.35;;
64235;SDS011;50564;47.402;9.740;2022-11-11T23:36:32;8.15;;;3.80;;
64235;SDS011;50564;47.402;9.740;2022-11-11T23:41:52;7.70;;;5.05;;
64235;SDS011;50564;47.402;9.740;2022-11-11T23:47:11;22.63;;;13.35;;
64235;SDS011;50564;47.402;9.740;2022-11-11T23:52:30;14.15;;;8.27;;
64235;SDS011;50564;47.402;9.740;2022-11-11T23:57:50;25.38;;;14.40;;
